الصفحة الرئيسية
METAR-TAF:

METAR-TAF

مطار :

Imperial County Airport (Boley Field)

إمبيريال, كاليفورنيا, الولايات المتحدة

دائرة عرض: 32-50-03N, خط طول: 115-34-43W, ارتفاع: 17 متر

مراقبة الطقس الحالي

تاريخ ووقت الإصدار 26 دقيقة قبل الساعة 09:53UTC
ريح 3 عقدة من الغرب
درجة الحرارة 22°درجة مئوية
الرطوبة 27%
ضغط 1011 hPa
الرؤية: 16.1 كم
سماء صافية

METAR: KIPL 290953Z AUTO 26003KT 10SM CLR 22/02 A2986 RMK AO2 SLP113 T02220022

زمن: 03:19 (10:19 UTC)

توقعات

تاريخ ووقت الإصدار 4ساعات و 59 دقيقة قبل الساعة 05:20UTC
التوقعات صالحة من29 الساعة 06 UTC إلى 30 الساعة 06 UTC
ريح 5 عقدةمن اتجاهات متغيرة
الرؤية: 10 كم
سماء صافية
من 29 الساعة 0700 UTC
ريح 5 عقدة من الشمال/الشمال الغربي
الرؤية: 10 كم
سماء صافية
من 29 الساعة 1600 UTC
ريح 5 عقدة من الشمال الشرقي
الرؤية: 10 كم
سماء صافية
من 30 الساعة 0400 UTC
ريح 4 عقدة من الجنوب الشرقي
الرؤية: 10 كم
سماء صافية

TAF: KIPL 290520Z 2906/3006 VRB05KT P6SM SKC FM290700 33005KT P6SM SKC FM291600 04005KT P6SM SKC FM300400 14004KT P6SM SKC

أرصاد الطقس والتوقعات من أكثر من 4000 مطار (تقارير الطقس للمطار METAR والتنبؤ بالطقس بالمطارTAF).

المحطات المتاحة هي النقط الصفراء والحمراء على الخريطة.

حرك المؤشر فوق النقطة لمعرفة اسم المحطة.

ثم انقر لمعرفة أرصاد وتوقعات الطقس.

لتغيير الخارطة: اضغط على الأزرار الخضراء مع رمز الصليب الأسود للتكبير. على الزر الأخضر مع شرطة للتصغير، أو على الأسهم الخضراء للخرائط المجاورة.


METAR-TAF: